Thursday, October 30, 2014
17:37 UTC
  |  Log In   |  Register Free
Airport Search:

Independence Municipal Airport
(KIDP)

FAA data valid effective September 18, 2014 - November 13, 2014 (unless otherwise noted).

 
 
 
 
 
 
 
 
 
 
 
 
 
 

Current Aviation Weather for Independence Municipal Airport (KIDP)

The most recent METAR observation for KIDP was updated at: 1713
METAR Summary (Translated METAR)
KIDP
301655Z AUTO 32012G18KT 10SM CLR 19/05 A3008 RMK AO2
KCFV
301652Z AUTO 29009KT 10SM CLR 19/06 A3008 RMK AO2 SLP183 T01890061
(10.6 nm SE from KIDP)
KPPF
301652Z AUTO 32011KT 10SM -RA CLR 19/06 A3008 RMK AO2 SLP184 P0000 T01940061
(16.6 nm NE from KIDP)
TAF
No TAF information found within 50 nm of KIDP
  Airport Weather Conditions for KIDP

 Current Weather at IDP
66° F
Fair
Northwest winds at 13.8 mph
IDP NOAA Radar

Pressure: 30.08 in
Humidity: 40%
Wind: from the Northwest at 13.8 gusting to 20.7 MPH (12 gusting to 18 KT)
Dew Point: 41.0°F
Visibility: 10.00 mi


Airport Weather Forecast for KIDP

Translated METAR and TAF for KIDP
Translated METAR for KIDP (1733 UTC 30 October 2014)
found at http://aviationweather.gov/adds/metars/
 
METAR text: KIDP 301715Z AUTO 35013G19KT 10SM CLR 19/04 A3008 RMK AO2
Conditions at: KIDP (INDEPENDENCE , KS, US) observed 1715 UTC 30 October 2014
Temperature: 19.0°C (66°F)
Dewpoint: 4.0°C (39°F) [RH = 37%]
Pressure (altimeter): 30.08 inches Hg (1018.7 mb)
Winds: from the N (350 degrees) at 15 MPH (13 knots; 6.8 m/s)
gusting to 22 MPH (19 knots; 9.9 m/s)
Visibility: 10 or more miles (16+ km)
Ceiling: at least 12,000 feet AGL
Clouds: sky clear below 12,000 feet AGL
Weather: automated observation with no human augmentation;
there may or may not be significant weather present at this time
Translated TAF for KIDP

There is no translated TAF available for this airport

Find All Airport Services Find A Hotel Find A Rental Car Find A Golf Course Find A Restaurant $100 Hamburger



FBO's on the Field
FBO Company Facility Photos Services Transportation Aviation Fuel Prices: Prices include tax
Catering Weather Repair Courtesy Rental Type 100LL JetA JetA+ MOGAS 8087
 
City of Independence

This FBO has not yet been rated
FS:Phillips 66
Last Updated: Oct-13
Login to update fuel prices
SS:
Contact City of IndependenceMore FBO Information
 
Add another FBO Facility Photos Catering Weather Repair Courtesy Rental Type 100LL JetA JetA+ MOGAS 8087
Services Transportation Aviation Fuel Prices: Prices include tax


model-print
model-print
model-print
model-print